createdAt,value
2022-11-18T00:01:20.149Z,86.60
2022-11-18T00:03:47.414Z,86.60
2022-11-18T00:06:18.268Z,86.70
2022-11-18T00:08:45.484Z,86.60
2022-11-18T00:11:36.442Z,86.50
2022-11-18T00:14:19.767Z,86.60
2022-11-18T00:16:55.510Z,86.60
2022-11-18T00:19:26.412Z,86.70
2022-11-18T00:21:54.247Z,86.80
2022-11-18T00:24:21.194Z,86.80
2022-11-18T00:26:48.555Z,86.90
2022-11-18T00:29:16.147Z,86.90
2022-11-18T00:31:43.849Z,87.20
2022-11-18T00:34:16.297Z,87.50
2022-11-18T00:36:44.376Z,87.60
2022-11-18T00:39:13.371Z,87.50
2022-11-18T00:41:58.643Z,87.50
2022-11-18T00:44:25.673Z,87.50
2022-11-18T00:46:53.461Z,87.50
2022-11-18T00:49:20.351Z,87.10
2022-11-18T00:51:47.288Z,87.10
2022-11-18T00:54:14.217Z,87.20
2022-11-18T00:56:41.136Z,87.30
2022-11-18T00:59:08.054Z,87.40
2022-11-18T01:01:35.105Z,87.30
2022-11-18T01:04:02.043Z,87.10
2022-11-18T01:06:29.743Z,87.20
2022-11-18T01:08:56.616Z,87.20
2022-11-18T01:11:41.689Z,87.40
2022-11-18T01:14:08.579Z,87.80
2022-11-18T01:16:35.468Z,87.90
2022-11-18T01:19:02.374Z,88.20
2022-11-18T01:21:29.655Z,88.20
2022-11-18T01:23:56.522Z,88.30
2022-11-18T01:26:23.483Z,88.10
2022-11-18T01:28:50.365Z,88.10
2022-11-18T01:31:19.559Z,88.70
2022-11-18T01:33:47.051Z,88.00
2022-11-18T01:36:22.667Z,87.80
2022-11-18T01:38:50.800Z,87.80
2022-11-18T01:41:19.813Z,87.90
2022-11-18T01:43:56.829Z,87.90
2022-11-18T01:46:26.777Z,87.80
2022-11-18T01:49:06.227Z,88.00
2022-11-18T01:51:39.298Z,88.00
2022-11-18T01:54:14.047Z,88.30
2022-11-18T01:56:46.161Z,88.40
2022-11-18T01:59:18.899Z,88.60
2022-11-18T02:01:46.527Z,88.80
2022-11-18T02:04:15.047Z,89.10
2022-11-18T02:06:44.604Z,89.20
2022-11-18T02:09:12.774Z,89.20
2022-11-18T02:11:51.533Z,89.40
2022-11-18T02:14:23.886Z,89.50
2022-11-18T02:17:19.509Z,89.50
2022-11-18T02:20:18.453Z,89.60
2022-11-18T02:23:40.480Z,89.40
2022-11-18T02:26:37.645Z,89.20
2022-11-18T02:29:22.365Z,89.20
2022-11-18T02:32:13.521Z,89.20
2022-11-18T02:34:49.779Z,89.20
2022-11-18T02:37:38.971Z,89.50
2022-11-18T02:40:17.670Z,89.70
2022-11-18T02:42:50.905Z,89.70
2022-11-18T02:45:19.214Z,89.70
2022-11-18T02:47:47.896Z,89.70
2022-11-18T02:50:20.107Z,89.70
2022-11-18T02:52:50.251Z,89.60
2022-11-18T02:55:18.726Z,89.60
2022-11-18T02:57:46.398Z,89.00
2022-11-18T03:00:13.923Z,88.90
2022-11-18T03:02:46.603Z,88.90
2022-11-18T03:05:43.229Z,89.10
2022-11-18T03:08:18.458Z,88.90
2022-11-18T03:11:11.558Z,88.60
2022-11-18T03:14:04.158Z,88.50
2022-11-18T03:17:01.650Z,88.40
2022-11-18T03:19:44.372Z,88.20
2022-11-18T03:22:33.044Z,88.10
2022-11-18T03:25:28.458Z,88.30
2022-11-18T03:28:19.228Z,88.20
2022-11-18T03:31:03.217Z,88.10
2022-11-18T03:33:42.187Z,88.00
2022-11-18T03:36:12.554Z,88.90
2022-11-18T03:38:47.398Z,88.90
2022-11-18T03:41:17.518Z,88.30
2022-11-18T03:43:51.102Z,88.30
2022-11-18T03:46:33.039Z,88.80
2022-11-18T03:49:01.490Z,88.70
2022-11-18T03:51:48.483Z,88.80
2022-11-18T03:54:25.410Z,89.00
2022-11-18T03:56:59.751Z,89.10
2022-11-18T03:59:36.406Z,89.10
2022-11-18T04:02:12.161Z,89.70
2022-11-18T04:04:39.668Z,89.20
2022-11-18T04:07:34.341Z,88.90
2022-11-18T04:10:14.583Z,89.20
2022-11-18T04:12:53.323Z,89.20
2022-11-18T04:15:20.464Z,89.10
2022-11-18T04:17:47.385Z,89.20
2022-11-18T04:20:20.470Z,89.30
2022-11-18T04:22:47.843Z,89.70
2022-11-18T04:25:15.541Z,89.80
2022-11-18T04:27:42.483Z,89.70
2022-11-18T04:30:10.204Z,89.80
2022-11-18T04:32:37.100Z,89.80
2022-11-18T04:35:04.096Z,90.00
2022-11-18T04:37:30.979Z,90.00
2022-11-18T04:39:57.847Z,90.00
2022-11-18T04:42:24.728Z,90.00
2022-11-18T04:44:51.634Z,90.20
2022-11-18T04:47:18.506Z,90.30
2022-11-18T04:49:45.377Z,90.30
2022-11-18T04:52:12.362Z,90.40
2022-11-18T04:54:39.238Z,90.50
2022-11-18T04:57:06.221Z,90.60
2022-11-18T04:59:33.132Z,90.70
2022-11-18T05:02:01.044Z,90.80
2022-11-18T05:04:31.798Z,90.90
2022-11-18T05:06:59.765Z,90.80
2022-11-18T05:09:31.479Z,90.80
2022-11-18T05:12:17.494Z,90.80
2022-11-18T05:14:49.553Z,90.90
2022-11-18T05:17:17.613Z,90.90
2022-11-18T05:19:44.491Z,91.00
2022-11-18T05:22:11.394Z,90.90
2022-11-18T05:24:38.271Z,90.90
2022-11-18T05:27:05.159Z,90.90
2022-11-18T05:29:33.497Z,90.90
2022-11-18T05:32:00.396Z,90.90
2022-11-18T05:34:27.253Z,90.90
2022-11-18T05:36:54.127Z,90.90
2022-11-18T05:39:21.401Z,91.20
2022-11-18T05:42:06.863Z,90.80
2022-11-18T05:44:33.739Z,90.80
2022-11-18T05:47:00.679Z,90.90
2022-11-18T05:49:27.561Z,90.90
2022-11-18T05:51:54.440Z,90.90
2022-11-18T05:54:22.112Z,90.90
2022-11-18T05:56:49.110Z,90.90
2022-11-18T05:59:16.771Z,90.80
2022-11-18T06:01:54.220Z,90.70
2022-11-18T06:04:37.139Z,90.70
2022-11-18T06:07:10.611Z,90.70
2022-11-18T06:09:40.957Z,90.70
2022-11-18T06:12:08.710Z,90.70
2022-11-18T06:14:47.372Z,90.70
2022-11-18T06:17:32.293Z,90.80
2022-11-18T06:19:59.601Z,90.80
2022-11-18T06:22:26.934Z,90.70
2022-11-18T06:24:54.127Z,90.80
2022-11-18T06:27:21.674Z,90.70
2022-11-18T06:29:48.562Z,90.70
2022-11-18T06:32:15.458Z,90.70
2022-11-18T06:34:42.337Z,90.60
2022-11-18T06:37:17.650Z,90.70
2022-11-18T06:39:44.555Z,90.60
2022-11-18T06:42:11.604Z,90.50
2022-11-18T06:44:38.555Z,90.70
2022-11-18T06:47:05.552Z,90.60
2022-11-18T06:49:32.484Z,90.70
2022-11-18T06:51:59.354Z,90.80
2022-11-18T06:54:26.231Z,90.90
2022-11-18T06:56:53.106Z,90.90
2022-11-18T06:59:23.811Z,90.90
2022-11-18T07:01:53.042Z,91.10
2022-11-18T07:04:20.146Z,91.00
2022-11-18T07:06:47.045Z,91.10
2022-11-18T07:09:14.112Z,91.20
2022-11-18T07:11:41.403Z,91.30
2022-11-18T07:14:09.676Z,91.30
2022-11-18T07:16:37.340Z,91.50
2022-11-18T07:19:13.461Z,91.50
2022-11-18T07:21:41.415Z,91.50
2022-11-18T07:24:09.762Z,91.40
2022-11-18T07:26:37.179Z,91.50
2022-11-18T07:29:04.178Z,91.40
2022-11-18T07:31:32.045Z,91.40
2022-11-18T07:33:59.031Z,91.40
2022-11-18T07:36:33.972Z,91.40
2022-11-18T07:39:05.710Z,91.40
2022-11-18T07:41:33.649Z,91.40
2022-11-18T07:44:02.579Z,91.50
2022-11-18T07:46:37.858Z,91.50
2022-11-18T07:49:07.641Z,91.50
2022-11-18T07:51:37.371Z,91.50
2022-11-18T07:54:11.149Z,91.40
2022-11-18T07:56:38.109Z,91.40
2022-11-18T07:59:05.498Z,91.30
2022-11-18T08:01:32.662Z,91.30
2022-11-18T08:04:07.505Z,91.20
2022-11-18T08:06:35.577Z,91.10
2022-11-18T08:09:03.473Z,91.00
2022-11-18T08:11:30.364Z,91.00
2022-11-18T08:13:57.241Z,90.80
2022-11-18T08:16:25.929Z,90.70
2022-11-18T08:18:53.535Z,90.60
2022-11-18T08:21:22.416Z,90.60
2022-11-18T08:23:57.381Z,90.40
2022-11-18T08:26:25.304Z,90.20
2022-11-18T08:28:52.814Z,90.30
2022-11-18T08:31:26.814Z,90.30
2022-11-18T08:34:06.845Z,90.10
2022-11-18T08:36:37.033Z,89.90
2022-11-18T08:39:08.439Z,89.60
2022-11-18T08:41:39.072Z,89.30
2022-11-18T08:44:12.414Z,89.50
2022-11-18T08:46:39.595Z,89.10
2022-11-18T08:49:06.604Z,89.30
2022-11-18T08:51:33.548Z,89.40
2022-11-18T08:54:00.430Z,89.00
2022-11-18T08:56:27.651Z,88.90
2022-11-18T08:58:54.873Z,88.50
2022-11-18T09:01:22.439Z,88.30
2022-11-18T09:03:49.767Z,88.30
2022-11-18T09:06:20.505Z,87.80
2022-11-18T09:08:47.909Z,87.90
2022-11-18T09:11:24.354Z,87.70
2022-11-18T09:16:44.559Z,86.40
2022-11-18T09:19:46.141Z,86.10
2022-11-18T09:21:58.913Z,86.10
2022-11-18T09:24:25.850Z,86.00
2022-11-18T09:26:53.886Z,86.40
2022-11-18T09:29:25.300Z,86.00
2022-11-18T09:31:53.815Z,85.20
2022-11-18T09:34:21.408Z,84.90
2022-11-18T09:36:48.386Z,85.10
2022-11-18T09:39:15.450Z,84.40
2022-11-18T09:42:27.920Z,84.40
2022-11-18T09:45:11.824Z,84.20
2022-11-18T09:47:40.322Z,84.00
2022-11-18T09:50:41.814Z,84.00
2022-11-18T09:53:26.269Z,83.30
2022-11-18T09:55:54.587Z,83.30
2022-11-18T09:58:35.584Z,83.30
2022-11-18T10:01:03.290Z,83.00
2022-11-18T10:03:33.115Z,82.00
2022-11-18T10:06:26.342Z,82.20
2022-11-18T10:09:20.939Z,81.60
2022-11-18T10:12:12.501Z,80.90
2022-11-18T10:15:15.553Z,80.80
2022-11-18T10:18:45.120Z,80.00
2022-11-18T10:21:28.570Z,79.90
2022-11-18T10:24:09.057Z,79.60
2022-11-18T10:26:41.456Z,80.60
2022-11-18T10:29:10.851Z,79.20
2022-11-18T10:31:40.230Z,78.90
2022-11-18T10:34:13.143Z,79.10
2022-11-18T10:36:40.528Z,78.80
2022-11-18T10:39:14.403Z,78.40
2022-11-18T10:41:49.663Z,78.50
2022-11-18T10:44:40.580Z,78.80
2022-11-18T10:47:33.791Z,77.80
2022-11-18T10:50:35.368Z,77.60
2022-11-18T10:53:02.594Z,77.50
2022-11-18T10:55:30.665Z,76.60
2022-11-18T10:58:03.949Z,76.50
2022-11-18T11:00:38.809Z,76.70
2022-11-18T11:03:25.320Z,76.80
2022-11-18T11:06:29.745Z,76.40
2022-11-18T11:09:02.535Z,76.50
2022-11-18T11:11:39.808Z,75.30
2022-11-18T11:14:32.986Z,75.00
2022-11-18T11:17:10.170Z,75.00
2022-11-18T11:19:57.035Z,75.40
2022-11-18T11:22:23.935Z,74.90
2022-11-18T11:24:50.881Z,74.60
2022-11-18T11:30:23.144Z,75.80
2022-11-18T11:33:11.348Z,75.50
2022-11-18T11:36:14.671Z,75.20
2022-11-18T11:39:05.273Z,75.10
2022-11-18T11:42:13.605Z,75.10
2022-11-18T11:44:49.893Z,75.00
2022-11-18T11:47:49.911Z,74.70
2022-11-18T11:51:05.122Z,74.90
2022-11-18T11:54:05.627Z,74.50
2022-11-18T11:56:45.074Z,75.00
2022-11-18T11:59:27.983Z,75.00
2022-11-18T12:02:26.712Z,74.00
2022-11-18T12:05:23.327Z,73.70
2022-11-18T12:08:01.504Z,73.80
2022-11-18T12:10:49.903Z,73.70
2022-11-18T12:13:53.387Z,73.70
2022-11-18T12:16:50.942Z,73.70
2022-11-18T12:19:23.373Z,73.70
2022-11-18T12:21:50.115Z,73.40
2022-11-18T12:24:32.086Z,73.50
2022-11-18T12:27:23.415Z,74.50
2022-11-18T12:29:52.849Z,74.70
2022-11-18T12:32:30.680Z,73.20
2022-11-18T12:35:13.850Z,72.60
2022-11-18T12:37:52.657Z,72.70
2022-11-18T12:40:50.508Z,72.80
2022-11-18T12:43:45.133Z,72.30
2022-11-18T12:46:27.281Z,72.40
2022-11-18T12:48:54.155Z,72.80
2022-11-18T12:51:20.923Z,71.90
2022-11-18T12:53:53.045Z,72.00
2022-11-18T12:56:24.357Z,72.20
2022-11-18T12:59:00.677Z,71.80
2022-11-18T13:01:36.779Z,70.90
2022-11-18T13:04:17.697Z,71.10
2022-11-18T13:06:44.991Z,70.70
2022-11-18T13:09:19.633Z,70.60
2022-11-18T13:11:54.382Z,70.60
2022-11-18T13:14:47.803Z,70.40
2022-11-18T13:17:52.275Z,71.20
2022-11-18T13:20:39.066Z,70.70
2022-11-18T13:23:33.446Z,71.10
2022-11-18T13:26:28.614Z,70.70
2022-11-18T13:29:26.938Z,70.80
2022-11-18T13:32:13.492Z,70.90
2022-11-18T13:34:48.630Z,71.30
2022-11-18T13:37:23.201Z,70.80
2022-11-18T13:39:50.648Z,71.00
2022-11-18T13:42:28.054Z,70.70
2022-11-18T13:44:57.547Z,71.20
2022-11-18T13:47:36.063Z,71.30
2022-11-18T13:50:35.521Z,71.30
2022-11-18T13:53:19.390Z,71.60
2022-11-18T13:56:03.461Z,71.60
2022-11-18T13:59:18.012Z,72.00
2022-11-18T14:01:46.337Z,72.10
2022-11-18T14:04:30.565Z,72.40
2022-11-18T14:07:34.169Z,72.00
2022-11-18T14:10:08.132Z,72.30
2022-11-18T14:12:36.520Z,72.30
2022-11-18T14:15:43.356Z,72.50
2022-11-18T14:18:31.251Z,72.50
2022-11-18T14:20:59.325Z,72.80
2022-11-18T14:23:35.379Z,72.60
2022-11-18T14:26:05.703Z,72.50
2022-11-18T14:28:37.856Z,72.90
2022-11-18T14:31:09.892Z,72.90
2022-11-18T14:33:38.279Z,73.00
2022-11-18T14:36:16.040Z,73.20
2022-11-18T14:41:47.415Z,73.30
2022-11-18T14:44:15.011Z,73.50
2022-11-18T14:46:45.613Z,73.80
2022-11-18T14:49:22.292Z,74.00
2022-11-18T14:51:51.523Z,74.00
2022-11-18T14:54:26.314Z,74.20
2022-11-18T14:57:01.323Z,74.20
2022-11-18T14:59:28.557Z,74.30
2022-11-18T15:01:56.414Z,74.30
2022-11-18T15:04:23.667Z,74.30
2022-11-18T15:06:50.535Z,74.40
2022-11-18T15:09:17.410Z,74.50
2022-11-18T15:11:44.761Z,74.60
2022-11-18T15:14:11.675Z,74.80
2022-11-18T15:16:38.583Z,74.80
2022-11-18T15:19:11.213Z,75.10
2022-11-18T15:21:38.095Z,75.30
2022-11-18T15:24:05.260Z,75.50
2022-11-18T15:26:38.589Z,75.70
2022-11-18T15:29:05.826Z,76.00
2022-11-18T15:31:32.865Z,75.90
2022-11-18T15:34:05.076Z,76.30
2022-11-18T15:36:33.662Z,76.50
2022-11-18T15:39:00.533Z,76.70
2022-11-18T15:41:29.561Z,76.70
2022-11-18T15:43:59.440Z,76.90
2022-11-18T15:46:28.107Z,77.10
2022-11-18T15:48:56.825Z,77.30
2022-11-18T15:51:26.028Z,77.40
2022-11-18T15:53:53.244Z,77.50
2022-11-18T15:56:25.010Z,77.80
2022-11-18T15:59:15.129Z,78.00
2022-11-18T16:01:49.021Z,78.20
2022-11-18T16:04:19.165Z,78.10
2022-11-18T16:06:46.427Z,78.20
2022-11-18T16:09:15.102Z,78.30
2022-11-18T16:12:01.098Z,78.40
2022-11-18T16:14:28.227Z,78.40
2022-11-18T16:16:56.616Z,78.50
2022-11-18T16:19:26.158Z,79.40
2022-11-18T16:21:56.733Z,79.00
2022-11-18T16:24:28.684Z,79.00
2022-11-18T16:26:56.259Z,79.20
2022-11-18T16:29:24.064Z,79.30
2022-11-18T16:31:52.656Z,79.30
2022-11-18T16:34:28.161Z,79.40
2022-11-18T16:36:57.749Z,79.70
2022-11-18T16:39:27.352Z,79.80
2022-11-18T16:42:07.475Z,80.00
2022-11-18T16:44:36.543Z,80.00
2022-11-18T16:47:10.781Z,80.00
2022-11-18T16:49:41.289Z,80.30
2022-11-18T16:52:08.925Z,80.40
2022-11-18T16:54:41.041Z,80.40
2022-11-18T16:57:11.479Z,80.40
2022-11-18T16:59:38.376Z,80.50
2022-11-18T17:02:05.740Z,80.60
2022-11-18T17:04:35.301Z,80.90
2022-11-18T17:07:03.114Z,81.00
2022-11-18T17:09:30.046Z,81.20
2022-11-18T17:11:58.620Z,81.40
2022-11-18T17:14:26.001Z,81.50
2022-11-18T17:16:53.539Z,81.80
2022-11-18T17:19:22.968Z,82.00
2022-11-18T17:21:51.627Z,82.20
2022-11-18T17:24:22.083Z,82.30
2022-11-18T17:26:50.123Z,82.50
2022-11-18T17:29:17.474Z,82.30
2022-11-18T17:31:44.869Z,82.30
2022-11-18T17:34:14.135Z,82.60
2022-11-18T17:36:42.065Z,82.60
2022-11-18T17:39:11.184Z,82.60
2022-11-18T17:41:57.278Z,82.80
2022-11-18T17:44:24.647Z,82.80
2022-11-18T17:46:51.898Z,83.10
2022-11-18T17:49:19.379Z,83.00
2022-11-18T17:51:46.320Z,83.20
2022-11-18T17:54:14.368Z,83.20
2022-11-18T17:56:41.674Z,83.20
2022-11-18T17:59:08.869Z,83.50
2022-11-18T18:01:35.936Z,83.40
2022-11-18T18:04:13.812Z,83.70
2022-11-18T18:06:42.743Z,83.70
2022-11-18T18:09:10.177Z,83.70
2022-11-18T18:11:37.441Z,83.70
2022-11-18T18:14:13.742Z,84.00
2022-11-18T18:16:46.744Z,84.10
2022-11-18T18:19:20.072Z,84.20
2022-11-18T18:21:47.362Z,84.60
2022-11-18T18:24:17.248Z,85.00
2022-11-18T18:26:44.503Z,85.00
2022-11-18T18:29:12.197Z,85.00
2022-11-18T18:31:39.310Z,85.10
2022-11-18T18:34:06.345Z,85.00
2022-11-18T18:36:33.886Z,85.00
2022-11-18T18:39:02.152Z,85.70
2022-11-18T18:41:29.072Z,85.70
2022-11-18T18:43:56.650Z,85.70
2022-11-18T18:46:29.459Z,85.60
2022-11-18T18:49:13.311Z,85.70
2022-11-18T18:51:46.216Z,86.00
2022-11-18T18:54:18.536Z,85.70
2022-11-18T18:56:45.705Z,85.70
2022-11-18T18:59:12.615Z,85.60
2022-11-18T19:01:39.729Z,85.70
2022-11-18T19:04:07.979Z,85.90
2022-11-18T19:09:25.446Z,86.10
2022-11-18T19:12:12.192Z,86.00
2022-11-18T19:14:39.497Z,86.20
2022-11-18T19:17:11.348Z,86.20
2022-11-18T19:19:59.539Z,86.30
2022-11-18T19:22:30.959Z,86.40
2022-11-18T19:24:58.946Z,86.40
2022-11-18T19:27:26.403Z,86.60
2022-11-18T19:29:53.506Z,86.70
2022-11-18T19:32:21.044Z,86.70
2022-11-18T19:34:47.959Z,86.90
2022-11-18T19:37:14.878Z,86.80
2022-11-18T19:39:41.743Z,86.90
2022-11-18T19:42:10.778Z,86.80
2022-11-18T19:44:39.577Z,86.70
2022-11-18T19:47:06.581Z,86.70
2022-11-18T19:49:33.460Z,86.70
2022-11-18T19:52:00.340Z,86.80
2022-11-18T19:54:27.193Z,87.00
2022-11-18T19:56:54.066Z,87.20
2022-11-18T19:59:21.224Z,87.20
2022-11-18T20:01:48.589Z,87.30
2022-11-18T20:04:15.469Z,87.40
2022-11-18T20:06:42.442Z,87.40
2022-11-18T20:09:11.017Z,87.40
2022-11-18T20:11:38.488Z,87.70
2022-11-18T20:14:06.549Z,87.70
2022-11-18T20:16:33.700Z,87.70
2022-11-18T20:19:08.027Z,87.60
2022-11-18T20:21:39.003Z,87.80
2022-11-18T20:24:08.072Z,87.80
2022-11-18T20:26:38.111Z,88.10
2022-11-18T20:29:07.549Z,88.10
2022-11-18T20:31:35.934Z,88.20
2022-11-18T20:34:04.007Z,88.60
2022-11-18T20:36:33.999Z,88.30
2022-11-18T20:39:04.969Z,88.30
2022-11-18T20:41:32.605Z,88.70
2022-11-18T20:44:00.717Z,88.60
2022-11-18T20:46:27.913Z,88.60
2022-11-18T20:48:55.639Z,88.70
2022-11-18T20:51:26.475Z,88.70
2022-11-18T20:53:55.169Z,88.70
2022-11-18T20:56:27.065Z,88.80
2022-11-18T20:58:56.085Z,88.90
2022-11-18T21:01:27.482Z,88.80
2022-11-18T21:04:00.050Z,88.70
2022-11-18T21:06:29.924Z,88.80
2022-11-18T21:09:03.833Z,88.50
2022-11-18T21:11:33.781Z,88.60
2022-11-18T21:14:24.455Z,88.80
2022-11-18T21:17:00.851Z,88.70
2022-11-18T21:19:28.985Z,88.90
2022-11-18T21:21:56.886Z,88.90
2022-11-18T21:24:30.986Z,88.90
2022-11-18T21:26:59.793Z,88.90
2022-11-18T21:29:30.114Z,88.60
2022-11-18T21:31:59.206Z,88.80
2022-11-18T21:34:26.194Z,88.90
2022-11-18T21:36:55.199Z,88.70
2022-11-18T21:39:24.451Z,88.80
2022-11-18T21:41:55.727Z,89.00
2022-11-18T21:44:24.564Z,89.10
2022-11-18T21:46:51.867Z,89.20
2022-11-18T21:49:19.173Z,89.10
2022-11-18T21:51:46.359Z,88.90
2022-11-18T21:54:15.718Z,89.00
2022-11-18T21:56:42.684Z,88.90
2022-11-18T21:59:09.544Z,88.90
2022-11-18T22:01:36.439Z,89.00
2022-11-18T22:04:05.098Z,89.20
2022-11-18T22:06:34.332Z,89.10
2022-11-18T22:09:02.999Z,89.20
2022-11-18T22:11:30.027Z,90.00
2022-11-18T22:13:57.132Z,89.20
2022-11-18T22:16:25.287Z,89.10
2022-11-18T22:18:59.970Z,89.00
2022-11-18T22:21:29.415Z,89.20
2022-11-18T22:24:01.016Z,89.20
2022-11-18T22:26:28.875Z,89.30
2022-11-18T22:28:57.560Z,89.10
2022-11-18T22:31:26.535Z,89.90
2022-11-18T22:33:54.430Z,89.10
2022-11-18T22:36:23.737Z,89.30
2022-11-18T22:38:50.628Z,89.10
2022-11-18T22:41:45.438Z,89.00
2022-11-18T22:44:14.952Z,88.90
2022-11-18T22:46:44.046Z,88.70
2022-11-18T22:49:12.204Z,88.80
2022-11-18T22:51:40.274Z,89.00
2022-11-18T22:56:55.121Z,89.30
2022-11-18T22:59:22.646Z,89.30
2022-11-18T23:01:51.998Z,89.40
2022-11-18T23:04:19.158Z,89.60
2022-11-18T23:06:46.065Z,89.40
2022-11-18T23:09:12.956Z,89.40
2022-11-18T23:11:58.059Z,89.40
2022-11-18T23:14:24.937Z,89.30
2022-11-18T23:16:51.827Z,89.10
2022-11-18T23:19:19.225Z,88.90
2022-11-18T23:21:46.347Z,88.70
2022-11-18T23:24:15.390Z,88.60
2022-11-18T23:26:42.701Z,88.50
2022-11-18T23:29:11.116Z,88.50
2022-11-18T23:31:42.897Z,88.60
2022-11-18T23:34:15.065Z,88.60
2022-11-18T23:36:42.638Z,88.50
2022-11-18T23:39:09.846Z,88.90
2022-11-18T23:41:36.957Z,88.50
2022-11-18T23:44:04.939Z,88.60
2022-11-18T23:46:32.466Z,88.90
2022-11-18T23:48:59.449Z,88.90
2022-11-18T23:51:26.707Z,89.60
2022-11-18T23:53:57.369Z,89.00
2022-11-18T23:56:26.723Z,89.20
2022-11-18T23:58:56.271Z,89.30
